Time;durP1;ratioP1;P1;durP2;ratioP2;P2;SDS_P1;SDS_P2;PMS_P1;PMS_P2;Temp;Humidity;BMP_temperature;BMP_pressure;BME280_temperature;BME280_humidity;BME280_pressure;Samples;Min_cycle;Max_cycle;Signal;HPM_P1;HPM_P2
2021/01/15 00:00:22;;;;;;;14.52;8.30;;;0.20;2201.60;;;;;;6100575;23;20033;-64
2021/01/15 00:02:48;;;;;;;17.33;8.68;;;0.10;2201.60;;;;;;6100699;23;19995;-63
2021/01/15 00:05:14;;;;;;;10.43;7.18;;;0.10;2201.60;;;;;;6099887;23;20082;-65
2021/01/15 00:07:40;;;;;;;12.00;7.57;;;0.00;2201.60;;;;;;6100221;23;19998;-64
2021/01/15 00:10:06;;;;;;;13.80;8.00;;;0.00;2201.60;;;;;;6100203;23;20385;-63
2021/01/15 00:12:32;;;;;;;13.95;7.88;;;0.00;2201.60;;;;;;6099880;23;20079;-65
2021/01/15 00:14:58;;;;;;;13.32;7.65;;;0.00;2201.60;;;;;;6100480;23;20303;-64
2021/01/15 00:17:23;;;;;;;14.55;8.10;;;0.00;2201.60;;;;;;6100015;23;20002;-63
2021/01/15 00:19:49;;;;;;;15.07;7.68;;;0.00;2201.60;;;;;;6099725;23;19999;-64
2021/01/15 00:22:15;;;;;;;15.73;9.30;;;0.00;2201.60;;;;;;6100449;23;20001;-63
2021/01/15 00:24:41;;;;;;;11.88;7.20;;;0.00;2201.60;;;;;;6100211;23;20022;-63
2021/01/15 00:27:07;;;;;;;13.77;7.63;;;0.00;2201.60;;;;;;6099779;23;19999;-63
2021/01/15 00:29:33;;;;;;;15.27;8.40;;;0.00;2201.60;;;;;;6099678;23;20280;-64
2021/01/15 00:31:58;;;;;;;13.98;8.20;;;0.00;2201.60;;;;;;6100036;23;19998;-64
2021/01/15 00:34:24;;;;;;;15.20;8.50;;;0.00;2201.60;;;;;;6099598;23;20306;-63
2021/01/15 00:36:50;;;;;;;12.32;7.75;;;0.00;2201.60;;;;;;6099833;23;20454;-65
2021/01/15 00:39:17;;;;;;;14.77;8.60;;;0.10;2201.60;;;;;;6099864;23;20424;-66
2021/01/15 00:41:44;;;;;;;15.45;9.07;;;0.00;2201.60;;;;;;6099930;23;20382;-64
2021/01/15 00:44:11;;;;;;;13.85;8.52;;;0.10;2201.60;;;;;;6099866;23;19990;-63
2021/01/15 00:46:45;;;;;;;12.23;7.72;;;0.10;2201.60;;;;;;6099509;23;19994;-66
2021/01/15 00:49:13;;;;;;;11.63;7.85;;;0.10;2201.60;;;;;;6099230;23;19997;-64
2021/01/15 00:51:39;;;;;;;14.27;8.15;;;0.20;2201.60;;;;;;6099767;23;19994;-64
2021/01/15 00:54:06;;;;;;;14.55;8.25;;;0.30;2201.60;;;;;;6099116;23;20041;-63
2021/01/15 00:56:32;;;;;;;13.27;7.65;;;0.30;2201.60;;;;;;6099995;23;19991;-63
2021/01/15 00:58:58;;;;;;;15.10;8.68;;;0.40;2201.60;;;;;;6099950;23;20002;-63
2021/01/15 01:01:25;;;;;;;13.85;8.70;;;0.40;2201.60;;;;;;6099044;23;19995;-64
2021/01/15 01:03:51;;;;;;;13.00;8.23;;;0.40;2201.60;;;;;;6099678;23;19994;-63
2021/01/15 01:06:19;;;;;;;11.65;7.22;;;0.40;2201.60;;;;;;6099629;23;20287;-65
2021/01/15 01:08:46;;;;;;;15.52;8.20;;;0.40;2201.60;;;;;;6099336;23;20006;-63
2021/01/15 01:11:21;;;;;;;17.65;8.43;;;0.30;2201.60;;;;;;6099910;23;20085;-65
2021/01/15 01:13:54;;;;;;;12.88;8.02;;;0.40;2201.60;;;;;;6099616;23;19994;-63
2021/01/15 01:16:21;;;;;;;14.35;7.82;;;0.30;2201.60;;;;;;6099630;23;20054;-63
2021/01/15 01:18:48;;;;;;;12.57;7.55;;;0.30;2201.60;;;;;;6099623;23;20449;-64
2021/01/15 01:21:14;;;;;;;14.52;8.00;;;0.30;2201.60;;;;;;6098842;23;20425;-64
2021/01/15 01:23:41;;;;;;;14.88;8.23;;;0.30;2201.60;;;;;;6098801;23;20001;-63
2021/01/15 01:26:07;;;;;;;14.30;8.52;;;0.30;2201.60;;;;;;6099886;23;20033;-64
2021/01/15 01:28:33;;;;;;;13.93;7.65;;;0.30;2201.60;;;;;;6099001;23;20398;-66
2021/01/15 01:31:00;;;;;;;13.27;8.05;;;0.30;2201.60;;;;;;6099171;23;20029;-63
2021/01/15 01:33:25;;;;;;;12.50;8.23;;;0.20;2201.60;;;;;;6099469;23;19995;-64
2021/01/15 01:35:51;;;;;;;14.10;8.10;;;0.10;2201.60;;;;;;6099001;23;20005;-64
2021/01/15 01:38:17;;;;;;;12.77;7.90;;;0.10;2201.60;;;;;;6099599;23;20002;-64
2021/01/15 01:40:44;;;;;;;14.82;8.20;;;0.10;2201.60;;;;;;6099187;23;20002;-64
2021/01/15 01:43:10;;;;;;;12.05;7.43;;;0.10;2201.60;;;;;;6098498;23;19998;-66
2021/01/15 01:45:35;;;;;;;14.85;7.97;;;0.00;2201.60;;;;;;6098891;23;20422;-63
2021/01/15 01:48:02;;;;;;;14.65;8.05;;;0.00;2201.60;;;;;;6099671;23;20390;-64
2021/01/15 01:50:29;;;;;;;14.65;8.20;;;0.00;2201.60;;;;;;6099275;23;20049;-65
2021/01/15 01:52:56;;;;;;;13.23;8.70;;;0.00;2201.60;;;;;;6098972;23;20024;-64
2021/01/15 01:55:22;;;;;;;24.60;8.68;;;12.90;2201.60;;;;;;6099550;23;20418;-64
2021/01/15 01:57:48;;;;;;;15.77;8.32;;;12.90;2201.60;;;;;;6098490;23;20024;-65
2021/01/15 02:00:15;;;;;;;14.43;8.88;;;12.90;2201.60;;;;;;6099228;23;19999;-64
2021/01/15 02:02:41;;;;;;;16.23;8.80;;;13.00;2201.60;;;;;;6098552;23;19995;-65
2021/01/15 02:05:08;;;;;;;18.45;9.07;;;12.90;2201.60;;;;;;6099174;23;20334;-63
2021/01/15 02:07:34;;;;;;;12.55;8.48;;;12.90;2201.60;;;;;;6099866;23;19994;-63
2021/01/15 02:10:46;;;;;;;18.27;9.68;;;12.90;2201.60;;;;;;6099160;23;19998;-63
2021/01/15 02:13:35;;;;;;;17.00;9.15;;;0.00;2201.60;;;;;;6098908;23;19998;-66
2021/01/15 02:16:09;;;;;;;12.82;8.25;;;12.90;2201.60;;;;;;6099792;23;19999;-65
2021/01/15 02:18:47;;;;;;;12.55;8.48;;;12.90;2201.60;;;;;;6098770;23;20058;-64
2021/01/15 02:21:42;;;;;;;15.30;8.88;;;12.90;2201.60;;;;;;6098485;23;20429;-63
2021/01/15 02:24:19;;;;;;;16.58;8.80;;;12.90;2201.60;;;;;;6099178;23;19998;-64
2021/01/15 02:27:24;;;;;;;16.92;8.68;;;13.00;2201.60;;;;;;6098788;23;20313;-64
2021/01/15 02:30:20;;;;;;;16.42;9.57;;;12.90;2201.60;;;;;;6098782;23;19994;-64
2021/01/15 02:33:06;;;;;;;13.88;8.63;;;12.90;2201.60;;;;;;6035688;23;20002;-65
2021/01/15 02:36:10;;;;;;;16.50;9.23;;;13.00;2201.60;;;;;;6099029;23;20421;-64
2021/01/15 02:39:07;;;;;;;16.95;9.20;;;13.00;2201.60;;;;;;6037122;23;20347;-63
2021/01/15 02:41:34;;;;;;;16.38;9.10;;;13.00;2201.60;;;;;;6099389;23;19994;-63
2021/01/15 02:44:05;;;;;;;15.02;8.32;;;12.90;2201.60;;;;;;6099002;23;19991;-63
2021/01/15 02:46:31;;;;;;;14.73;8.73;;;13.00;2201.60;;;;;;6098985;23;20001;-65
2021/01/15 02:48:58;;;;;;;16.23;9.13;;;13.00;2201.60;;;;;;6099320;23;19998;-65
2021/01/15 02:51:25;;;;;;;16.30;9.40;;;13.00;2201.60;;;;;;6098953;23;20394;-63
2021/01/15 02:53:50;;;;;;;16.88;9.68;;;12.90;2201.60;;;;;;6098664;23;20018;-65
2021/01/15 02:56:16;;;;;;;19.50;9.77;;;13.00;2201.60;;;;;;6098552;23;20425;-63
2021/01/15 02:58:42;;;;;;;15.82;9.20;;;13.00;2201.60;;;;;;6098846;23;20009;-65
2021/01/15 03:01:09;;;;;;;16.83;9.85;;;13.00;2201.60;;;;;;6098504;23;19998;-65
2021/01/15 03:03:49;;;;;;;16.10;9.43;;;13.00;2201.60;;;;;;6099249;23;20050;-64
2021/01/15 03:06:23;;;;;;;16.08;9.45;;;12.90;2201.60;;;;;;6098547;23;20069;-64
2021/01/15 03:08:53;;;;;;;15.27;9.13;;;12.90;2201.60;;;;;;6098644;23;19998;-63
2021/01/15 03:11:20;;;;;;;15.93;10.02;;;12.90;2201.60;;;;;;6098882;23;19995;-64
2021/01/15 03:13:47;;;;;;;18.63;10.00;;;12.90;2201.60;;;;;;6098606;23;20394;-64
2021/01/15 03:16:14;;;;;;;22.52;9.88;;;12.90;2201.60;;;;;;6098809;23;19999;-64
2021/01/15 03:18:42;;;;;;;19.88;10.93;;;0.00;2201.60;;;;;;6099135;23;19998;-64
2021/01/15 03:21:08;;;;;;;16.63;9.93;;;0.00;2201.60;;;;;;6097828;23;20003;-65
2021/01/15 03:23:37;;;;;;;18.30;9.98;;;0.00;2201.60;;;;;;6099673;23;20077;-65
2021/01/15 03:26:04;;;;;;;16.33;9.48;;;0.00;2201.60;;;;;;6100512;23;20014;-65
2021/01/15 03:28:29;;;;;;;17.33;9.90;;;0.00;2201.60;;;;;;6100346;23;20005;-63
2021/01/15 03:30:55;;;;;;;20.95;9.68;;;0.00;2201.60;;;;;;6100553;23;20014;-63
2021/01/15 03:33:21;;;;;;;20.48;11.15;;;0.00;2201.60;;;;;;6100553;23;19994;-64
2021/01/15 03:35:47;;;;;;;17.73;11.00;;;0.00;2201.60;;;;;;6100504;23;19995;-64
2021/01/15 03:38:13;;;;;;;17.90;10.32;;;0.00;2201.60;;;;;;6100045;23;20413;-64
2021/01/15 03:40:45;;;;;;;18.02;9.52;;;0.00;2201.60;;;;;;6100176;23;20006;-63
2021/01/15 03:43:15;;;;;;;18.88;10.60;;;12.90;2201.60;;;;;;6100180;23;19999;-64
2021/01/15 03:45:42;;;;;;;18.95;9.88;;;13.00;2201.60;;;;;;6100425;23;20001;-63
2021/01/15 03:48:09;;;;;;;17.20;9.60;;;13.00;2201.60;;;;;;6100788;23;19995;-64
2021/01/15 03:50:36;;;;;;;17.35;9.85;;;13.00;2201.60;;;;;;6100462;23;20026;-64
2021/01/15 03:53:02;;;;;;;18.45;10.75;;;13.00;2201.60;;;;;;6100409;23;19998;-63
2021/01/15 03:55:28;;;;;;;18.90;10.23;;;13.10;2201.60;;;;;;6100356;23;20001;-64
2021/01/15 03:57:54;;;;;;;19.75;10.98;;;13.10;2201.60;;;;;;6099906;23;19999;-64
2021/01/15 04:00:20;;;;;;;18.02;10.65;;;13.20;2201.60;;;;;;6100625;23;20049;-65
2021/01/15 04:02:46;;;;;;;19.13;11.05;;;13.20;2201.60;;;;;;6099777;23;20126;-63
2021/01/15 04:05:13;;;;;;;19.48;10.50;;;13.30;2201.60;;;;;;6100099;23;20390;-63
2021/01/15 04:07:42;;;;;;;20.08;10.90;;;13.30;2201.60;;;;;;6099937;23;19998;-64
2021/01/15 04:10:10;;;;;;;22.08;11.35;;;13.30;2201.60;;;;;;6099816;23;20409;-63
2021/01/15 04:12:40;;;;;;;17.67;9.85;;;13.30;2201.60;;;;;;6100151;23;20002;-62
2021/01/15 04:15:07;;;;;;;17.33;9.40;;;13.30;2201.60;;;;;;6100466;23;19994;-64
2021/01/15 04:17:33;;;;;;;14.60;9.05;;;13.30;2201.60;;;;;;6100059;23;20050;-65
2021/01/15 04:19:58;;;;;;;15.07;8.70;;;13.30;2201.60;;;;;;6100451;23;19998;-64
2021/01/15 04:22:24;;;;;;;18.25;9.60;;;13.30;2201.60;;;;;;6099447;23;20057;-65
2021/01/15 04:24:50;;;;;;;15.60;8.80;;;13.30;2201.60;;;;;;6100003;23;20017;-64
2021/01/15 04:27:16;;;;;;;15.20;8.75;;;13.40;2201.60;;;;;;6100383;23;19998;-63
2021/01/15 04:29:42;;;;;;;18.48;8.60;;;13.30;2201.60;;;;;;6099985;23;20049;-63
2021/01/15 04:32:08;;;;;;;17.65;9.85;;;13.40;2201.60;;;;;;6098662;23;20037;-65
2021/01/15 04:34:33;;;;;;;16.65;9.20;;;13.30;2201.60;;;;;;6098886;23;19995;-63
2021/01/15 04:36:59;;;;;;;16.42;9.20;;;13.20;2201.60;;;;;;6099316;23;20003;-65
2021/01/15 04:39:25;;;;;;;16.23;9.73;;;13.10;2201.60;;;;;;6099663;23;20073;-65
2021/01/15 04:41:52;;;;;;;16.27;9.35;;;13.10;2201.60;;;;;;6099663;23;20398;-65
2021/01/15 04:44:18;;;;;;;18.75;9.48;;;13.10;2201.60;;;;;;6099917;23;19995;-64
2021/01/15 04:46:45;;;;;;;20.10;8.82;;;13.00;2201.60;;;;;;6099822;23;19995;-66
2021/01/15 04:49:12;;;;;;;15.27;9.27;;;13.00;2201.60;;;;;;6100162;23;20001;-65
2021/01/15 04:51:41;;;;;;;16.75;9.48;;;13.10;2201.60;;;;;;6099759;23;19997;-66
2021/01/15 04:54:13;;;;;;;17.75;9.15;;;13.10;2201.60;;;;;;6100083;23;19995;-64
2021/01/15 04:56:48;;;;;;;17.05;9.30;;;13.20;2201.60;;;;;;6099879;23;20294;-67
2021/01/15 04:59:15;;;;;;;23.17;10.98;;;13.10;2201.60;;;;;;6098713;23;19998;-65
2021/01/15 05:01:48;;;;;;;20.85;10.73;;;13.20;2201.60;;;;;;6099560;23;20039;-64
2021/01/15 05:04:18;;;;;;;22.13;10.57;;;13.10;2201.60;;;;;;6100112;23;19995;-64
2021/01/15 05:06:51;;;;;;;15.57;9.68;;;13.00;2201.60;;;;;;6099467;23;19995;-65
2021/01/15 05:09:21;;;;;;;18.17;9.52;;;13.00;2201.60;;;;;;6099924;23;20001;-64
2021/01/15 05:11:50;;;;;;;16.52;9.80;;;13.00;2201.60;;;;;;6099816;23;20379;-64
2021/01/15 05:14:17;;;;;;;17.05;9.93;;;0.00;2201.60;;;;;;6098810;23;20429;-64
2021/01/15 05:16:47;;;;;;;18.65;10.57;;;0.10;2201.60;;;;;;6098857;23;20085;-64
2021/01/15 05:19:14;;;;;;;19.55;9.68;;;0.20;2201.60;;;;;;6099437;23;20014;-67
2021/01/15 05:21:41;;;;;;;20.88;9.93;;;0.30;2201.60;;;;;;6098176;23;19995;-66
2021/01/15 05:24:08;;;;;;;20.83;10.77;;;0.20;2201.60;;;;;;6097311;23;20006;-65
2021/01/15 05:26:36;;;;;;;15.55;8.70;;;0.20;2201.60;;;;;;6097499;23;19998;-64
2021/01/15 05:29:04;;;;;;;17.13;8.95;;;0.30;2201.60;;;;;;6097211;23;20222;-66
2021/01/15 05:31:57;;;;;;;27.58;16.63;;;0.40;2201.60;;;;;;6097107;23;20417;-66
2021/01/15 05:34:28;;;;;;;22.35;15.55;;;0.20;2201.60;;;;;;6098299;23;19990;-64
2021/01/15 05:36:54;;;;;;;34.45;22.30;;;0.20;2201.60;;;;;;6098353;23;20001;-65
2021/01/15 05:39:23;;;;;;;52.13;43.20;;;0.40;2201.60;;;;;;6099359;23;20005;-66
2021/01/15 05:41:56;;;;;;;23.77;12.10;;;0.40;2201.60;;;;;;6099342;23;20003;-65
2021/01/15 05:44:28;;;;;;;16.90;9.02;;;0.30;2201.60;;;;;;6099426;23;20062;-66
2021/01/15 05:46:54;;;;;;;15.98;8.48;;;0.40;2201.60;;;;;;6099327;23;19995;-64
2021/01/15 05:49:20;;;;;;;14.65;8.13;;;0.60;2201.60;;;;;;6099353;23;20001;-64
2021/01/15 05:51:46;;;;;;;16.00;8.40;;;0.60;2201.60;;;;;;6099242;23;20394;-65
2021/01/15 05:54:26;;;;;;;13.73;7.60;;;0.70;2201.60;;;;;;6098942;23;19998;-65
2021/01/15 05:56:53;;;;;;;14.85;8.05;;;0.70;2201.60;;;;;;6099202;23;20005;-65
2021/01/15 05:59:19;;;;;;;16.38;8.95;;;0.70;2201.60;;;;;;6099560;23;20005;-66
2021/01/15 06:01:52;;;;;;;12.93;7.88;;;0.70;2201.60;;;;;;6098918;23;20018;-66
2021/01/15 06:04:19;;;;;;;14.10;8.80;;;0.60;2201.60;;;;;;6099560;23;20054;-66
2021/01/15 06:06:47;;;;;;;15.57;9.38;;;0.40;2201.60;;;;;;6099412;23;19995;-66
2021/01/15 06:09:19;;;;;;;12.25;7.47;;;0.60;2201.60;;;;;;6098881;23;20073;-66
2021/01/15 06:11:45;;;;;;;15.23;8.57;;;0.60;2201.60;;;;;;6099199;23;20044;-64
2021/01/15 06:14:22;;;;;;;12.40;7.80;;;0.80;2201.60;;;;;;6099123;23;20402;-66
2021/01/15 06:16:48;;;;;;;11.98;7.70;;;0.80;2201.60;;;;;;6099028;23;20001;-64
2021/01/15 06:19:14;;;;;;;14.10;8.40;;;0.80;2201.60;;;;;;6099473;23;20002;-65
2021/01/15 06:21:52;;;;;;;14.50;7.80;;;0.80;2201.60;;;;;;6099382;23;19994;-65
2021/01/15 06:24:22;;;;;;;12.63;7.93;;;0.80;2201.60;;;;;;6098626;23;20022;-66
2021/01/15 06:27:05;;;;;;;15.88;8.07;;;0.90;2201.60;;;;;;6099412;23;19994;-64
2021/01/15 06:29:44;;;;;;;15.98;9.20;;;0.80;2201.60;;;;;;6098980;23;20005;-66
2021/01/15 06:32:10;;;;;;;16.95;9.02;;;0.90;2201.60;;;;;;6099096;23;20002;-64
2021/01/15 06:34:48;;;;;;;17.48;9.70;;;0.90;2201.60;;;;;;6099333;23;19995;-66
2021/01/15 06:37:20;;;;;;;19.20;9.98;;;25.60;2201.60;;;;;;6098190;23;19999;-64
2021/01/15 06:40:08;;;;;;;14.32;9.27;;;25.60;2201.60;;;;;;6099045;23;20002;-64
2021/01/15 06:42:46;;;;;;;19.17;10.20;;;25.60;2201.60;;;;;;6098726;23;20013;-64
2021/01/15 06:45:15;;;;;;;19.60;11.38;;;25.70;2201.60;;;;;;6098932;23;20379;-65
2021/01/15 06:47:46;;;;;;;20.17;11.85;;;25.70;2201.60;;;;;;6099290;23;20047;-63
2021/01/15 06:50:18;;;;;;;20.02;11.95;;;25.80;2201.60;;;;;;6099372;23;19998;-66
2021/01/15 06:52:50;;;;;;;20.25;13.43;;;25.80;2201.60;;;;;;6098930;23;19995;-68
2021/01/15 06:55:19;;;;;;;25.73;14.35;;;25.80;2201.60;;;;;;6099293;23;19990;-65
2021/01/15 06:57:51;;;;;;;29.23;17.88;;;25.90;2201.60;;;;;;6099056;23;20298;-64
2021/01/15 07:00:23;;;;;;;33.15;19.25;;;26.10;2201.60;;;;;;6100550;23;20314;-65
2021/01/15 07:03:12;;;;;;;32.65;19.00;;;26.20;2201.60;;;;;;6100888;23;20192;-66
2021/01/15 07:05:46;;;;;;;28.63;16.58;;;26.30;2201.60;;;;;;6100511;23;20002;-66
2021/01/15 07:08:15;;;;;;;26.60;16.40;;;26.20;2201.60;;;;;;6101202;23;19999;-65
2021/01/15 07:10:41;;;;;;;28.88;16.63;;;26.00;2201.60;;;;;;6101178;23;19997;-65
2021/01/15 07:13:10;;;;;;;29.20;16.42;;;26.00;2201.60;;;;;;6099880;23;20307;-65
2021/01/15 07:15:42;;;;;;;24.52;15.27;;;26.10;2201.60;;;;;;6100384;23;20065;-64
2021/01/15 07:18:26;;;;;;;27.80;16.70;;;25.80;2201.60;;;;;;6101066;23;20006;-65
2021/01/15 07:20:57;;;;;;;28.40;16.17;;;0.90;2201.60;;;;;;6100709;23;19998;-66
2021/01/15 07:23:53;;;;;;;31.80;16.23;;;0.80;2201.60;;;;;;6100757;23;20077;-64
2021/01/15 07:26:19;;;;;;;27.30;16.48;;;0.90;2201.60;;;;;;6100844;23;20432;-64
2021/01/15 07:28:57;;;;;;;27.95;16.80;;;0.80;2201.60;;;;;;6100724;23;19998;-64
2021/01/15 07:31:25;;;;;;;26.97;15.43;;;0.60;2201.60;;;;;;6101042;23;20026;-64
2021/01/15 07:33:56;;;;;;;29.42;18.50;;;0.70;2201.60;;;;;;6100679;23;20002;-63
2021/01/15 07:36:37;;;;;;;49.22;26.55;;;0.60;2201.60;;;;;;6101003;23;19998;-64
2021/01/15 07:39:14;;;;;;;44.00;25.33;;;0.80;2201.60;;;;;;6100810;23;20002;-64
2021/01/15 07:41:54;;;;;;;43.22;24.55;;;25.60;2201.60;;;;;;6100603;23;20004;-66
2021/01/15 07:44:25;;;;;;;38.83;22.80;;;25.80;2201.60;;;;;;6100938;23;20424;-62
2021/01/15 07:47:01;;;;;;;31.33;19.52;;;25.80;2201.60;;;;;;6100509;23;19994;-65
2021/01/15 07:49:49;;;;;;;28.38;17.65;;;26.00;2201.60;;;;;;6100876;23;20021;-64
2021/01/15 07:52:15;;;;;;;28.02;17.80;;;26.10;2201.60;;;;;;6100481;23;20414;-64
2021/01/15 07:54:46;;;;;;;31.25;18.02;;;26.10;2201.60;;;;;;6100085;23;19995;-63
2021/01/15 07:57:15;;;;;;;28.80;18.45;;;26.00;2201.60;;;;;;6100316;23;20026;-64
2021/01/15 07:59:41;;;;;;;25.83;16.38;;;26.10;2201.60;;;;;;6100738;23;20049;-63
2021/01/15 08:02:08;;;;;;;23.17;14.80;;;26.50;2201.60;;;;;;6100012;23;19994;-66
2021/01/15 08:04:33;;;;;;;26.85;16.13;;;51.40;2227.20;;;;;;6099976;23;20081;-64
2021/01/15 08:07:21;;;;;;;27.75;16.98;;;51.30;2227.20;;;;;;6100298;23;20042;-65
2021/01/15 08:09:48;;;;;;;26.23;15.10;;;51.30;2227.20;;;;;;6099437;23;20409;-64
2021/01/15 08:12:14;;;;;;;26.63;15.63;;;51.50;2227.20;;;;;;6100198;23;20298;-65
2021/01/15 08:14:39;;;;;;;22.73;13.32;;;51.40;2227.20;;;;;;6099908;23;19991;-65
2021/01/15 08:17:11;;;;;;;45.65;32.25;;;51.50;2227.20;;;;;;6100036;23;20002;-64
2021/01/15 08:19:38;;;;;;;44.83;26.13;;;51.30;2227.20;;;;;;6099463;23;20024;-65
2021/01/15 08:22:08;;;;;;;33.97;20.80;;;51.40;2227.20;;;;;;6099831;23;20002;-66
2021/01/15 08:24:47;;;;;;;28.38;16.30;;;51.30;2227.20;;;;;;6100267;23;20018;-64
2021/01/15 08:27:17;;;;;;;26.63;17.42;;;51.30;2227.20;;;;;;6100462;23;20002;-64
2021/01/15 08:29:44;;;;;;;26.83;15.48;;;51.40;2227.20;;;;;;6099530;23;20045;-65
2021/01/15 08:32:10;;;;;;;25.75;15.70;;;51.50;2227.20;;;;;;6100403;23;19994;-66
2021/01/15 08:34:38;;;;;;;32.15;20.33;;;51.90;2227.20;;;;;;6099552;23;20002;-64
2021/01/15 08:37:09;;;;;;;296.42;91.57;;;52.10;2227.20;;;;;;6098660;23;20007;-65
2021/01/15 08:39:45;;;;;;;649.13;241.77;;;76.80;2227.20;;;;;;6098686;23;20006;-63
2021/01/15 08:42:10;;;;;;;52.30;29.83;;;76.90;2227.20;;;;;;6099762;23;19994;-64
2021/01/15 08:44:38;;;;;;;39.85;22.65;;;77.20;2176.00;;;;;;6099079;23;19995;-65
2021/01/15 08:47:08;;;;;;;36.15;21.52;;;77.10;2176.00;;;;;;6099379;23;20004;-64
2021/01/15 08:49:34;;;;;;;88.53;46.85;;;77.30;2176.00;;;;;;6098560;23;20073;-66
2021/01/15 08:52:02;;;;;;;96.50;53.28;;;76.90;2227.20;;;;;;6099228;23;19995;-64
2021/01/15 08:54:31;;;;;;;72.00;41.07;;;76.80;2227.20;;;;;;6100153;23;20022;-66
2021/01/15 08:56:59;;;;;;;50.67;32.25;;;76.90;2227.20;;;;;;6099703;23;19995;-64
2021/01/15 08:59:31;;;;;;;56.67;35.67;;;77.00;2227.20;;;;;;6099418;23;20021;-64
2021/01/15 09:02:05;;;;;;;68.10;40.80;;;77.40;2227.20;;;;;;6099709;23;19995;-65
2021/01/15 09:04:35;;;;;;;60.97;40.33;;;77.20;2227.20;;;;;;6099242;23;20298;-66
2021/01/15 09:07:04;;;;;;;62.22;39.17;;;77.30;2227.20;;;;;;6099673;23;19998;-64
2021/01/15 09:09:31;;;;;;;63.97;37.20;;;77.50;2227.20;;;;;;6099550;23;20030;-65
2021/01/15 09:12:06;;;;;;;47.50;31.95;;;102.40;2227.20;;;;;;6099167;23;20002;-65
2021/01/15 09:14:36;;;;;;;48.28;30.60;;;102.40;2201.60;;;;;;6099587;23;19998;-65
2021/01/15 09:17:06;;;;;;;39.75;26.98;;;77.60;2201.60;;;;;;6097772;23;19995;-64
2021/01/15 09:19:34;;;;;;;38.15;22.70;;;102.40;2201.60;;;;;;6099095;23;20005;-64
2021/01/15 09:22:07;;;;;;;31.40;19.13;;;102.60;2176.00;;;;;;6099705;23;19999;-65
2021/01/15 09:24:34;;;;;;;26.52;16.73;;;102.60;2176.00;;;;;;6098956;23;20021;-66
2021/01/15 09:27:07;;;;;;;27.15;15.80;;;102.90;2124.80;;;;;;6099510;23;19997;-64
2021/01/15 09:29:34;;;;;;;23.85;15.13;;;103.00;2073.60;;;;;;6099784;23;20033;-64
2021/01/15 09:32:01;;;;;;;22.35;16.58;;;102.90;2073.60;;;;;;6099488;23;20025;-65
2021/01/15 09:34:27;;;;;;;24.08;15.95;;;102.90;2073.60;;;;;;6099428;23;20283;-64
2021/01/15 09:36:54;;;;;;;23.35;14.18;;;103.20;2073.60;;;;;;6099307;23;19999;-65
2021/01/15 09:39:22;;;;;;;23.75;15.50;;;102.80;2073.60;;;;;;6098771;23;20005;-64
2021/01/15 09:41:52;;;;;;;24.20;14.97;;;103.20;2048.00;;;;;;6099408;23;20294;-65
